Tiempo atmosférico en la estación meteorológica de Agüimes, Las Palmas (306 m.)



Fecha
DESCASC
Temp. máxima en grados centígrados (hora)
DESCASC
Temp. mínima en grados centígrados (hora)
DESCASC
Temp. media en grados centígrados
DESCASC
Racha de viento máxima en m/sg (hora)
DESCASC
Velocidad máxima media en intervalos de 10 minutos(hora)
DESCASC
Precipitaciones diarias en mm
DESCASC
Precipitaciones de 00:00 a 06:00 en mm
DESCASC
Precipitaciones de 06:00 a 12:00 en mm
DESCASC
Precipitaciones de 12:00 a 18:00 en mm
DESCASC
Precipitaciones de 18:00 a 24:00 en mm
DESCASC
11-12-2019 20.6 (14:00) 15.3 (07:10) 18 18.89 (23:30) 12.22 (23:30) 0 0 0 0 0
10-12-2019 20.9 (13:40) 14.2 (06:20) 17.5 16.39 (20:30) 10.83 (20:30) 0 0 0 0 0
09-12-2019 20.4 (13:50) 15 (23:50) 17.7 12.5 (13:20) 8.61 (13:30) 0 0 0 0 0
08-12-2019 19.7 (14:50) 14.9 (00:00) 17.3 14.44 (13:10) 10 (16:20) 0 0 0 0 0
07-12-2019 20.2 (12:40) 14.6 (00:00) 17.4 14.72 (10:00) 10.28 (00:10) 0 0 0 0 0
06-12-2019 19.1 (14:10) 13.6 (00:00) 16.4 16.39 (23:50) 12.22 (23:40) 5.4 1.6 0.6 0.6 2.6
05-12-2019 18.5 (13:00) 13.3 (00:00) 15.9 20.83 (07:10) 14.44 (07:20) 9 6 0 0.4 2.6
04-12-2019 20.3 (12:10) 14.2 (00:00) 17.2 11.94 (12:20) 7.78 (12:20) 0 0 0 0 0
03-12-2019 20.1 (12:00) 14.7 (00:00) 17.4 13.61 (15:40) 8.89 (15:30) 0.6 0 0.6 0 0
02-12-2019 21.1 (14:00) 15 (00:00) 18.1 11.94 (02:00) 7.78 (21:30) 0 0 0 0 0
01-12-2019 22.1 (12:40) 16.6 (00:00) 19.4 16.94 (13:40) 11.11 (07:30) 0 0 0 0 0
30-11-2019 27.6 (13:20) 17.7 (00:00) 22.7 7.22 (15:00) 4.72 (15:00) 0 0 0 0 0
29-11-2019 27.6 (14:20) 18.3 (00:00) 22.9 8.89 (00:20) 6.39 (00:20) 0 0 0 0 0
28-11-2019 24.9 (13:10) 15.9 (00:00) 20.4 13.89 (01:40) 9.17 (00:30) 0 0 0 0 0
27-11-2019 22.8 (12:10) 16 (00:00) 19.4 15.56 (21:40) 9.72 (00:10) 0 0 0 0 0
26-11-2019 23.6 (12:50) 14.8 (00:00) 19.2 13.06 (23:59) 10.28 (23:59) 0 0 0 0 0
25-11-2019 22.1 (13:50) 14.7 (00:00) 18.4 15.28 (13:40) 10.28 (00:10) 0 0 0 0 0
24-11-2019 23 (12:50) 16.8 (00:00) 19.9 14.72 (13:00) 10 (21:20) 0 0 0 0 0
23-11-2019 24.2 (13:00) 15.7 (00:00) 20 10.28 (23:40) 6.67 (14:20) 0.2 0 0 0.2 0
22-11-2019 24.4 (12:50) 15.8 (00:00) 20.1 7.78 (13:20) 4.72 (13:30) 0 0 0 0 0
21-11-2019 20.5 (10:10) 15 (00:00) 17.8 5 (14:00) 3.61 (14:10) 0 0 0 0 0
20-11-2019 24.1 (13:20) 14.2 (00:00) 19.2 8.33 (14:00) 4.44 (14:10) 0 0 0 0 0
19-11-2019 21.9 (11:10) 14.7 (00:00) 18.3 10.28 (13:40) 6.67 (13:40) 0 0 0 0 0
18-11-2019 20.9 (12:30) 15 (00:00) 17.9 15.28 (01:50) 10.28 (02:30) 0 0 0 0 0
17-11-2019 18.6 (12:30) 13.9 (00:00) 16.3 14.17 (11:50) 9.17 (11:30) 0.6 0.2 0.4 0 0
16-11-2019 20.2 (13:50) 14.4 (00:00) 17.3 17.78 (11:50) 11.67 (14:20) 0.4 0 0.2 0 0.2
15-11-2019 17.6 (09:50) 14.7 (00:00) 16.2 16.67 (00:20) 11.94 (00:20) 5.2 0.2 3 1.8 0.2

Gráficas

Temp. máximas Temp. mínimas Temp. medias Precipitaciones Rachas de viento máximas Velocidades máximas media en intervalos de 10 minutos

Datos horarios

Fecha y hora oficial Temperatura (ºC) Velocidad del viento (km/h) Dirección del viento Racha (km/h) Dirección de racha Precipitación (mm) Presión (hPa) Tendencia (hPa) Humedad (%)
2019-12-14 23:00:00 14.9 14 Norte 20 Norte 0 -- -- 79
2019-12-14 22:00:00 15.5 12 Norte 23 Norte 0 -- -- 83
2019-12-14 21:00:00 15.9 15 Norte 24 Norte 0 -- -- 84
2019-12-14 20:00:00 16.3 8 Norte 18 Norte 0 -- -- 78
2019-12-14 19:00:00 16.7 11 Nordeste 24 Nordeste 0 -- -- 79
2019-12-14 18:00:00 17.3 14 Nordeste 24 Nordeste 0 -- -- 78
2019-12-14 17:00:00 18 17 Nordeste 24 Norte 0 -- -- 74
2019-12-14 16:00:00 18.9 14 Nordeste 25 Nordeste 0 -- -- 74
2019-12-14 15:00:00 20 17 Nordeste 30 Nordeste 0 -- -- 67
2019-12-14 14:00:00 21.1 19 Nordeste 32 Nordeste 0 -- -- 64
2019-12-14 13:00:00 21.2 18 Nordeste 31 Nordeste 0 -- -- 61
2019-12-14 12:00:00 21 21 Nordeste 32 Nordeste 0 -- -- 59
2019-12-14 11:00:00 19.9 17 Norte 31 Nordeste 0 -- -- 59
2019-12-14 10:00:00 18 19 Norte 32 Norte 0 -- -- 64
2019-12-14 09:00:00 16.7 15 Norte 24 Norte 0 -- -- 70
2019-12-14 08:00:00 15.3 12 Norte 23 Norte 0 -- -- 73
2019-12-14 07:00:00 15.1 14 Norte 29 Norte 0 -- -- 78
2019-12-14 06:00:00 15.4 19 Norte 32 Norte 0 -- -- 79
2019-12-14 05:00:00 15.8 17 Norte 30 Norte 0 -- -- 77
2019-12-14 04:00:00 15.8 23 Norte 34 Nordeste 0 -- -- 75
2019-12-14 03:00:00 16.4 15 Nordeste 38 Norte 0 -- -- 69
2019-12-14 02:00:00 15.7 25 Norte 41 Norte 0 -- -- 70
2019-12-14 01:00:00 16.1 18 Norte 38 Norte 0 -- -- 68
2019-12-14 00:00:00 15.8 21 Norte 37 Norte 0 -- -- 71
2019-12-13 23:00:00 15.9 26 Norte 40 Norte 0 -- -- 69
2019-12-13 22:00:00 15.6 25 Norte 48 Norte 0 -- -- 70
2019-12-13 21:00:00 15.8 26 Norte 46 Norte 0 -- -- 73
2019-12-13 20:00:00 16.1 27 Norte 43 Norte 0 -- -- 67
2019-12-13 19:00:00 15.9 26 Norte 44 Norte 0 -- -- 67
2019-12-13 18:00:00 16.6 24 Norte 51 Norte 0 -- -- 66
2019-12-13 17:00:00 17.3 37 Norte 52 Norte 0 -- -- 64
2019-12-13 16:00:00 18.2 35 Norte 53 Norte 0 -- -- 64
2019-12-13 15:00:00 19.1 33 Norte 54 Nordeste 0 -- -- 57
2019-12-13 14:00:00 19 35 Norte 63 Norte 0 -- -- 57
2019-12-13 13:00:00 18.8 36 Norte 54 Norte 0 -- -- 58
2019-12-13 12:00:00 18.5 32 Norte 55 Norte 0 -- -- 58
2019-12-13 11:00:00 16.8 34 Norte 56 Norte 0 -- -- 65
2019-12-13 10:00:00 16.2 32 Norte 50 Norte 0 -- -- 66
2019-12-13 09:00:00 15 30 Norte 53 Norte 0 -- -- 68
2019-12-13 08:00:00 14.6 36 Norte 62 Norte 0 -- -- 69
2019-12-13 07:00:00 14.6 36 Norte 57 Norte 0 -- -- 70
2019-12-13 06:00:00 14.7 38 Norte 62 Norte 0 -- -- 69
2019-12-13 05:00:00 14.8 40 Norte 61 Norte 0 -- -- 75
2019-12-13 04:00:00 15.4 31 Norte 62 Norte 0 -- -- 68
2019-12-13 03:00:00 15.1 38 Norte 59 Norte 0 -- -- 70
2019-12-13 02:00:00 14.8 31 Norte 62 Norte 0 -- -- 70
2019-12-13 01:00:00 15.3 39 Norte 54 Norte 0 -- -- 67
2019-12-13 00:00:00 15 38 Norte 57 Norte 0 -- -- 70
2019-12-12 23:00:00 15.3 36 Norte 53 Norte 0 -- -- 69
2019-12-12 22:00:00 15.4 31 Norte 52 Norte 0 -- -- 74
2019-12-12 21:00:00 15.4 35 Norte 52 Norte 0 -- -- 73
2019-12-12 20:00:00 15.3 33 Norte 55 Norte 0 -- -- 72
2019-12-12 19:00:00 15.7 33 Norte 56 Nordeste 0 -- -- 76
2019-12-12 18:00:00 16.2 35 Norte 52 Norte 0 -- -- 76
2019-12-12 17:00:00 16.6 27 Norte 42 Norte 0 -- -- 83
2019-12-12 16:00:00 16.7 23 Norte 45 Nordeste 0 -- -- 83
2019-12-12 15:00:00 17.1 30 Nordeste 49 Nordeste 0 -- -- 82
2019-12-12 14:00:00 17.5 30 Norte 44 Norte 0 -- -- 82
2019-12-12 13:00:00 20 28 Nordeste 49 Norte 0 -- -- 65
2019-12-12 12:00:00 18.5 31 Nordeste 49 Nordeste 0 -- -- 72
2019-12-12 11:00:00 18.5 33 Nordeste 49 Norte 0 -- -- 70
2019-12-12 10:00:00 17.7 31 Norte 60 Norte 0 -- -- 65
2019-12-12 09:00:00 16.8 37 Norte 57 Norte 0 -- -- 67
2019-12-12 08:00:00 15.8 37 Norte 60 Norte 0 -- -- 69
2019-12-12 07:00:00 15.6 35 Norte 58 Norte 0 -- -- 68
2019-12-12 06:00:00 15.9 40 Norte 60 Norte 0 -- -- 67
2019-12-12 05:00:00 15.9 38 Norte 58 Norte 0 -- -- 64
2019-12-12 04:00:00 16.2 32 Norte 58 Norte 0 -- -- 57
2019-12-12 03:00:00 16.5 35 Norte 55 Norte 0 -- -- 56
2019-12-12 02:00:00 16.2 36 Norte 59 Norte 0 -- -- 65
2019-12-12 01:00:00 16.1 40 Norte 69 Norte 0 -- -- 66
2019-12-12 00:00:00 15.9 43 Norte 68 Norte 0 -- -- 68
2019-12-11 23:00:00 15.7 39 Norte 59 Norte 0 -- -- 69
2019-12-11 22:00:00 15.5 33 Norte 55 Norte 0 -- -- 72
2019-12-11 21:00:00 15.9 35 Norte 53 Norte 0 -- -- 68
2019-12-11 20:00:00 16.1 37 Norte 51 Nordeste 0 -- -- 74
2019-12-11 19:00:00 16.1 32 Norte 50 Norte 0 -- -- 72
2019-12-11 18:00:00 16.4 30 Norte 53 Norte 0 -- -- 78
2019-12-11 17:00:00 17.6 35 Norte 50 Norte 0 -- -- 75
2019-12-11 16:00:00 18.7 36 Norte 57 Norte 0 -- -- 71
2019-12-11 15:00:00 19.7 34 Nordeste 55 Nordeste 0 -- -- 67
2019-12-11 14:00:00 20.6 27 Nordeste 53 Nordeste 0 -- -- 65
2019-12-11 13:00:00 20.5 30 Nordeste 47 Nordeste 0 -- -- 68
2019-12-11 12:00:00 20.2 30 Nordeste 48 Nordeste 0 -- -- 66
2019-12-11 11:00:00 19.2 30 Nordeste 44 Nordeste 0 -- -- 72
2019-12-11 10:00:00 18.2 30 Norte 54 Norte 0 -- -- 73
2019-12-11 09:00:00 16.8 30 Norte 48 Norte 0 -- -- 78
2019-12-11 08:00:00 16 27 Norte 45 Norte 0 -- -- 73
2019-12-11 07:00:00 15.4 30 Norte 46 Norte 0 -- -- 81
2019-12-11 06:00:00 15.9 30 Norte 45 Nordeste 0 -- -- 79
2019-12-11 05:00:00 16.3 25 Norte 44 Norte 0 -- -- 73
2019-12-11 04:00:00 16.1 27 Norte 48 Norte 0 -- -- 74
2019-12-11 03:00:00 16 33 Norte 62 Norte 0 -- -- 80
2019-12-11 02:00:00 16.5 36 Norte 54 Norte 0 -- -- 78
2019-12-11 01:00:00 17 38 Norte 57 Norte 0 -- -- 77
2019-12-11 00:00:00 16.7 35 Norte 52 Norte 0 -- -- 82
2019-12-10 23:00:00 17.2 27 Norte 52 Norte 0 -- -- 75
2019-12-10 22:00:00 17 37 Norte 54 Norte 0 -- -- 77
2019-12-10 21:00:00 16.9 35 Norte 59 Norte 0 -- -- 73
2019-12-10 20:00:00 17.5 33 Norte 53 Norte 0 -- -- 70
2019-12-10 19:00:00 17 29 Norte 51 Norte 0 -- -- 71
2019-12-10 18:00:00 17.2 32 Norte 49 Norte 0 -- -- 76
2019-12-10 17:00:00 18.7 25 Nordeste 45 Norte 0 -- -- 71
2019-12-10 16:00:00 20 27 Nordeste 44 Nordeste 0 -- -- 66
2019-12-10 15:00:00 20.6 27 Nordeste 45 Nordeste 0 -- -- 61
2019-12-10 14:00:00 20.6 28 Nordeste 47 Nordeste 0 -- -- 58
2019-12-10 13:00:00 20.5 29 Nordeste 41 Nordeste 0 -- -- 63
2019-12-10 12:00:00 20.3 26 Nordeste 38 Norte 0 -- -- 63
2019-12-10 11:00:00 19.3 26 Norte 39 Norte 0 -- -- 64
2019-12-10 10:00:00 17.7 27 Norte 40 Norte 0 -- -- 70
2019-12-10 09:00:00 16.5 27 Norte 37 Norte 0 -- -- 72
2019-12-10 08:00:00 14.8 26 Norte 39 Norte 0 -- -- 74
2019-12-10 07:00:00 14.7 27 Norte 39 Norte 0 -- -- 76
2019-12-10 06:00:00 15 18 Norte 35 Norte 0 -- -- 59
2019-12-10 05:00:00 15.3 22 Norte 41 Norte 0 -- -- 68
2019-12-10 04:00:00 15 27 Norte 44 Norte 0 -- -- 70
2019-12-10 03:00:00 15.2 31 Norte 44 Norte 0 -- -- 69
2019-12-10 02:00:00 14.8 24 Norte 37 Nordeste 0 -- -- 76
2019-12-10 01:00:00 15.3 21 Norte 35 Norte 0 -- -- 73
2019-12-10 00:00:00 15.1 21 Norte 33 Nordeste 0 -- -- 76
2019-12-09 23:00:00 15.2 18 Norte 30 Norte 0 -- -- 76
2019-12-09 22:00:00 15.5 19 Norte 30 Norte 0 -- -- 73
2019-12-09 21:00:00 15.6 15 Norte 28 Norte 0 -- -- 69
2019-12-09 20:00:00 15.9 17 Norte 35 Norte 0 -- -- 68
2019-12-09 19:00:00 15.9 22 Norte 34 Norte 0 -- -- 77
2019-12-09 18:00:00 16.7 23 Norte 35 Nordeste 0 -- -- 77
2019-12-09 17:00:00 18.3 19 Norte 36 Norte 0 -- -- 72
2019-12-09 16:00:00 19.5 23 Norte 36 Nordeste 0 -- -- 68
2019-12-09 15:00:00 20 22 Norte 41 Nordeste 0 -- -- 62
2019-12-09 14:00:00 20.4 27 Nordeste 45 Nordeste 0 -- -- 62
2019-12-09 13:00:00 19.9 26 Norte 40 Norte 0 -- -- 64
2019-12-09 12:00:00 19.2 27 Norte 39 Nordeste 0 -- -- 66
2019-12-09 11:00:00 18.4 26 Norte 38 Norte 0 -- -- 70
2019-12-09 10:00:00 17.7 23 Norte 44 Norte 0 -- -- 73
2019-12-09 09:00:00 16.3 22 Norte 36 Norte 0 -- -- 80
2019-12-09 08:00:00 15.3 19 Norte 32 Norte 0 -- -- 83
2019-12-09 07:00:00 15.4 22 Norte 37 Norte 0 -- -- 82
2019-12-09 06:00:00 15.5 22 Norte 36 Norte 0 -- -- 78
2019-12-09 05:00:00 15.4 27 Norte 39 Norte 0 -- -- 79
2019-12-09 04:00:00 15.3 23 Norte 38 Norte 0 -- -- 80
2019-12-09 03:00:00 15.4 23 Norte 37 Norte 0 -- -- 80
2019-12-09 02:00:00 15.6 23 Norte 37 Norte 0 -- -- 81
2019-12-09 01:00:00 15.6 22 Norte 37 Norte 0 -- -- 79
2019-12-09 00:00:00 15.5 23 Norte 41 Norte 0 -- -- 79
2019-12-08 23:00:00 15.6 23 Norte 41 Norte 0 -- -- 80
2019-12-08 22:00:00 15.9 29 Norte 45 Norte 0 -- -- 79
2019-12-08 21:00:00 16 27 Norte 46 Nordeste 0 -- -- 80
2019-12-08 20:00:00 15.9 26 Norte 44 Norte 0 -- -- 77
2019-12-08 19:00:00 15.8 31 Norte 45 Norte 0 -- -- 76
2019-12-08 18:00:00 16.1 25 Norte 45 Norte 0 -- -- 72
2019-12-08 17:00:00 17.1 32 Norte 52 Norte 0 -- -- 70
2019-12-08 16:00:00 18.3 32 Norte 52 Norte 0 -- -- 69
2019-12-08 15:00:00 19.5 30 Nordeste 46 Norte 0 -- -- 64
2019-12-08 14:00:00 19.1 30 Norte 52 Norte 0 -- -- 65
2019-12-08 13:00:00 19.2 30 Norte 49 Norte 0 -- -- 64
2019-12-08 12:00:00 19 26 Norte 48 Nordeste 0 -- -- 64
2019-12-08 11:00:00 17.5 29 Norte 44 Norte 0 -- -- 71
2019-12-08 10:00:00 17.6 23 Nordeste 43 Nordeste 0 -- -- 69
2019-12-08 09:00:00 15.6 18 Norte 35 Norte 0 -- -- 79
2019-12-08 08:00:00 15.1 19 Norte 31 Norte 0 -- -- 80
2019-12-08 07:00:00 15 18 Norte 32 Norte 0 -- -- 81
2019-12-08 06:00:00 15.2 20 Norte 32 Norte 0 -- -- 80
2019-12-08 05:00:00 15.6 22 Norte 39 Norte 0 -- -- 81
2019-12-08 04:00:00 15.7 27 Norte 43 Norte 0 -- -- 82
2019-12-08 03:00:00 15.8 23 Norte 41 Norte 0 -- -- 85
2019-12-08 02:00:00 16 21 Norte 44 Norte 0 -- -- 86
2019-12-08 01:00:00 16 26 Norte 38 Norte 0 -- -- 86
2019-12-08 00:00:00 16.1 23 Norte 42 Norte 0 -- -- 85
2019-12-07 23:00:00 16.1 27 Norte 49 Norte 0 -- -- 84
2019-12-07 22:00:00 16.2 31 Norte 46 Norte 0 -- -- 83
2019-12-07 21:00:00 16.3 26 Norte 47 Nordeste 0 -- -- 83
2019-12-07 20:00:00 16.4 29 Norte 46 Nordeste 0 -- -- 83
2019-12-07 19:00:00 16.4 26 Norte 48 Norte 0 -- -- 82
2019-12-07 18:00:00 16.7 26 Norte 46 Norte 0 -- -- 82
2019-12-07 17:00:00 17.1 28 Norte 44 Norte 0 -- -- 80
2019-12-07 16:00:00 19.2 25 Nordeste 42 Norte 0 -- -- 72
2019-12-07 15:00:00 19.4 28 Norte 43 Norte 0 -- -- 67
2019-12-07 14:00:00 19.5 30 Norte 47 Norte 0 -- -- 66
2019-12-07 13:00:00 19.7 27 Norte 42 Norte 0 -- -- 65
2019-12-07 12:00:00 18.9 25 Nordeste 40 Nordeste 0 -- -- 73
2019-12-07 11:00:00 17.5 29 Norte 48 Norte 0 -- -- 77
2019-12-07 10:00:00 17.6 31 Norte 53 Norte 0 -- -- 73
2019-12-07 09:00:00 16.8 26 Norte 37 Norte 0 -- -- 73
2019-12-07 08:00:00 15.5 22 Norte 33 Norte 0 -- -- 75
2019-12-07 07:00:00 15.1 21 Norte 39 Norte 0 -- -- 77
2019-12-07 06:00:00 15.1 25 Norte 38 Norte 0 -- -- 76
2019-12-07 05:00:00 14.8 20 Norte 35 Norte 0 -- -- 78
2019-12-07 04:00:00 14.8 19 Norte 33 Norte 0 -- -- 80
2019-12-07 03:00:00 14.8 17 Norte 37 Norte 0 -- -- 80
2019-12-07 02:00:00 15.1 19 Norte 43 Norte 0 -- -- 76
2019-12-07 01:00:00 15.2 26 Norte 52 Norte 0 -- -- 77
2019-12-07 00:00:00 15.2 40 Norte 59 Norte 0.2 -- -- 79
2019-12-06 23:00:00 14.6 31 Norte 44 Norte 1 -- -- 90
2019-12-06 22:00:00 15.2 27 Norte 41 Norte 0 -- -- 79
2019-12-06 21:00:00 15 22 Norte 37 Norte 1 -- -- 86
2019-12-06 20:00:00 15.3 22 Norte 39 Norte 0.2 -- -- 83
2019-12-06 19:00:00 15.3 16 Norte 37 Norte 0.2 -- -- 84
2019-12-06 18:00:00 16.1 25 Norte 43 Norte 0 -- -- 78
2019-12-06 17:00:00 16.2 31 Norte 52 Norte 0.4 -- -- 78
2019-12-06 16:00:00 17 35 Norte 57 Norte 0.2 -- -- 72
2019-12-06 15:00:00 17.9 25 Norte 47 Norte 0 -- -- 66
2019-12-06 14:00:00 19 20 Norte 42 Norte 0 -- -- 69
2019-12-06 13:00:00 17.6 24 Norte 45 Nordeste 0 -- -- 74
2019-12-06 12:00:00 17.5 25 Norte 53 Norte 0 -- -- 76
2019-12-06 11:00:00 18 27 Norte 52 Norte 0.2 -- -- 75
2019-12-06 10:00:00 16.3 24 Norte 41 Norte 0 -- -- 82
2019-12-06 09:00:00 15.4 20 Norte 32 Norte 0 -- -- 76
2019-12-06 08:00:00 14.8 17 Norte 41 Norte 0 -- -- 76
2019-12-06 07:00:00 14.7 23 Norte 44 Norte 0.4 -- -- 81
2019-12-06 06:00:00 14.9 23 Norte 46 Norte 0 -- -- 76
2019-12-06 05:00:00 14.7 24 Norte 43 Norte 0 -- -- 78
2019-12-06 04:00:00 14.6 23 Norte 46 Norte 0 -- -- 74
2019-12-06 03:00:00 14.4 23 Norte 39 Norte 0.2 -- -- 78
2019-12-06 02:00:00 14.3 23 Norte 39 Norte 0.2 -- -- 83
2019-12-06 01:00:00 14.3 19 Norte 40 Norte 1.2 -- -- 81
2019-12-06 00:00:00 14.2 19 Norte 37 Norte 0.8 -- -- 83
2019-12-05 23:00:00 14.7 23 Norte 37 Norte 0 -- -- 76
2019-12-05 22:00:00 13.3 12 Norte 36 Norte 1.8 -- -- 83
2019-12-05 21:00:00 15 17 Norte 34 Norte 0 -- -- 71
2019-12-05 20:00:00 14.9 13 Norte 30 Norte 0 -- -- 74
2019-12-05 19:00:00 14.5 11 Norte 31 Norte 0 -- -- 80
2019-12-05 18:00:00 14.6 12 Noroeste 44 Norte 0.4 -- -- 77
2019-12-05 17:00:00 16.6 12 Norte 36 Noroeste 0 -- -- 68
2019-12-05 16:00:00 17.3 17 Norte 32 Norte 0 -- -- 63
2019-12-05 15:00:00 17.3 15 Norte 32 Norte 0 -- -- 66
2019-12-05 14:00:00 17.3 16 Noroeste 38 Norte 0 -- -- 69
2019-12-05 13:00:00 18.5 22 Norte 42 Norte 0 -- -- 56
2019-12-05 12:00:00 18 15 Norte 38 Norte 0 -- -- 65
2019-12-05 11:00:00 17.6 15 Norte 37 Norte 0 -- -- 66
2019-12-05 10:00:00 16.5 19 Norte 44 Norte 0 -- -- 69
2019-12-05 09:00:00 15.9 33 Norte 68 Norte 0 -- -- 61
2019-12-05 08:00:00 14.8 43 Norte 75 Norte 0 -- -- 69
2019-12-05 07:00:00 14.6 45 Norte 69 Norte 0 -- -- 68
2019-12-05 06:00:00 14.4 46 Norte 72 Norte 0.2 -- -- 78
2019-12-05 05:00:00 14.3 36 Norte 57 Norte 0.4 -- -- 78
2019-12-05 04:00:00 14.3 25 Norte 39 Norte 2.6 -- -- 91
2019-12-05 03:00:00 14.9 4 Nordeste 15 Oeste 2.4 -- -- 91
2019-12-05 02:00:00 15.7 5 Oeste 9 Oeste 0.4 -- -- 85
2019-12-05 01:00:00 15.8 2 Norte 8 Noroeste 0 -- -- 79
2019-12-05 00:00:00 15.2 5 Noroeste 9 Oeste 0 -- -- 77
2019-12-04 23:00:00 15.6 7 Oeste 13 Oeste 0 -- -- 74
2019-12-04 22:00:00 15.9 9 Sudoeste 13 Sudoeste 0 -- -- 73
2019-12-04 21:00:00 16.6 4 Sudoeste 8 Sudoeste 0 -- -- 69
2019-12-04 20:00:00 16.9 3 Norte 12 Norte 0 -- -- 65
2019-12-04 19:00:00 17.1 8 Sur 17 Sur 0 -- -- 65
2019-12-04 18:00:00 17.7 14 Sur 21 Este 0 -- -- 65
2019-12-04 17:00:00 19.2 9 Este 27 Este 0 -- -- 57
2019-12-04 16:00:00 19.7 8 Sur 22 Sur 0 -- -- 56
2019-12-04 15:00:00 19.6 16 Sur 34 Sur 0 -- -- 55
2019-12-04 14:00:00 19.9 22 Sur 34 Sur 0 -- -- 54
2019-12-04 13:00:00 20.1 13 Noroeste 43 Norte 0 -- -- 49
2019-12-04 12:00:00 20.1 17 Norte 32 Nordeste 0 -- -- 48
2019-12-04 11:00:00 19.5 20 Norte 31 Norte 0 -- -- 47
2019-12-04 10:00:00 19.4 8 Sudoeste 22 Norte 0 -- -- 46
2019-12-04 09:00:00 16.8 9 Noroeste 26 Norte 0 -- -- 56
2019-12-04 08:00:00 15.9 9 Noroeste 26 Noroeste 0 -- -- 63
2019-12-04 07:00:00 14.7 9 Noroeste 30 Norte 0 -- -- 75
2019-12-04 06:00:00 15.7 15 Norte 23 Norte 0 -- -- 69
2019-12-04 05:00:00 15.2 7 Norte 20 Norte 0 -- -- 59
2019-12-04 04:00:00 15 13 Norte 19 Norte 0 -- -- 64
2019-12-04 03:00:00 15.5 15 Norte 22 Norte 0 -- -- 68
2019-12-04 02:00:00 15.9 15 Norte 23 Norte 0 -- -- 65
2019-12-04 01:00:00 15.9 18 Norte 26 Norte 0 -- -- 63
2019-12-04 00:00:00 16.2 16 Norte 26 Norte 0 -- -- 65
2019-12-03 23:00:00 16 16 Norte 30 Norte 0 -- -- 61
2019-12-03 22:00:00 16.1 17 Norte 30 Norte 0 -- -- 61
2019-12-03 21:00:00 16.1 16 Norte 26 Norte 0 -- -- 57
2019-12-03 20:00:00 15.7 9 Norte 28 Norte 0 -- -- 58
2019-12-03 19:00:00 16.7 20 Norte 34 Norte 0 -- -- 54
2019-12-03 18:00:00 17 21 Norte 39 Norte 0 -- -- 53
2019-12-03 17:00:00 17.8 24 Norte 40 Norte 0 -- -- 58
2019-12-03 16:00:00 18.5 26 Norte 49 Norte 0 -- -- 50
2019-12-03 15:00:00 18.8 24 Norte 39 Norte 0 -- -- 60
2019-12-03 14:00:00 19.5 26 Norte 40 Norte 0 -- -- 58
2019-12-03 13:00:00 19.3 19 Norte 36 Norte 0 -- -- 59
2019-12-03 12:00:00 20.1 17 Norte 32 Norte 0 -- -- 53
2019-12-03 11:00:00 18.4 19 Norte 32 Norte 0 -- -- 58
2019-12-03 10:00:00 17.1 18 Norte 28 Norte 0 -- -- 67
2019-12-03 09:00:00 15.9 12 Norte 21 Norte 0 -- -- 74
2019-12-03 08:00:00 15.3 11 Norte 21 Nordeste 0 -- -- 76
2019-12-03 07:00:00 14.7 14 Norte 27 Norte 0.6 -- -- 82
2019-12-03 06:00:00 16.1 11 Noroeste 26 Norte 0 -- -- 68
2019-12-03 05:00:00 15.1 14 Norte 32 Norte 0 -- -- 77
2019-12-03 04:00:00 16 15 Norte 35 Noroeste 0 -- -- 74
2019-12-03 03:00:00 15.4 18 Norte 32 Norte 0 -- -- 74
2019-12-03 02:00:00 14.7 20 Norte 34 Norte 0 -- -- 83
2019-12-03 01:00:00 15.3 22 Norte 36 Norte 0 -- -- 79
2019-12-03 00:00:00 15 23 Norte 38 Norte 0 -- -- 79
2019-12-02 23:00:00 15.1 24 Norte 38 Norte 0 -- -- 83
2019-12-02 22:00:00 16.8 19 Norte 42 Norte 0 -- -- 65
2019-12-02 21:00:00 16.1 26 Norte 36 Norte 0 -- -- 78
2019-12-02 20:00:00 16.5 24 Norte 33 Norte 0 -- -- 71
2019-12-02 19:00:00 17.5 2 Norte 12 Sudoeste 0 -- -- 75
2019-12-02 18:00:00 18 8 Sudeste 17 Sudeste 0 -- -- 73
2019-12-02 17:00:00 18.7 5 Sudeste 16 Sudeste 0 -- -- 70
2019-12-02 16:00:00 19.3 10 Sur 21 Sur 0 -- -- 68
2019-12-02 15:00:00 19.7 11 Sur 22 Sur 0 -- -- 66
2019-12-02 14:00:00 21.1 16 Sur 33 Sudoeste 0 -- -- 61
2019-12-02 13:00:00 19.9 12 Sur 21 Sur 0 -- -- 67
2019-12-02 12:00:00 19.1 9 Noroeste 43 Norte 0 -- -- 69
2019-12-02 11:00:00 18.1 18 Norte 30 Norte 0 -- -- 76
2019-12-02 10:00:00 18.9 8 Nordeste 22 Este 0 -- -- 74
2019-12-02 09:00:00 17.6 12 Sur 15 Sur 0 -- -- 71
2019-12-02 08:00:00 15.4 2 Norte 10 Oeste 0 -- -- 75
2019-12-02 07:00:00 17.5 14 Noroeste 36 Norte 0 -- -- 67
2019-12-02 06:00:00 17.1 16 Norte 39 Norte 0 -- -- 67
2019-12-02 05:00:00 17.5 15 Norte 41 Norte 0 -- -- 71
2019-12-02 04:00:00 17.8 23 Norte 40 Noroeste 0 -- -- 67
2019-12-02 03:00:00 17.9 22 Norte 42 Norte 0 -- -- 61
2019-12-02 02:00:00 16.8 27 Norte 43 Norte 0 -- -- 66
2019-12-02 01:00:00 16.5 25 Norte 38 Nordeste 0 -- -- 69
2019-12-02 00:00:00 17.3 26 Norte 47 Norte 0 -- -- 65
2019-12-01 23:00:00 16.9 27 Norte 44 Norte 0 -- -- 66
2019-12-01 22:00:00 17.1 22 Norte 43 Norte 0 -- -- 64
2019-12-01 21:00:00 17.3 28 Norte 42 Norte 0 -- -- 66
2019-12-01 20:00:00 17.4 29 Norte 54 Norte 0 -- -- 68
2019-12-01 19:00:00 17.7 38 Norte 57 Norte 0 -- -- 66
2019-12-01 18:00:00 17.7 39 Norte 53 Norte 0 -- -- 74
2019-12-01 17:00:00 18.8 35 Nordeste 55 Nordeste 0 -- -- 72
2019-12-01 16:00:00 20.5 36 Nordeste 53 Nordeste 0 -- -- 66
2019-12-01 15:00:00 21.3 39 Nordeste 51 Nordeste 0 -- -- 64
2019-12-01 14:00:00 21.8 29 Nordeste 61 Nordeste 0 -- -- 63
2019-12-01 13:00:00 21.6 33 Nordeste 49 Nordeste 0 -- -- 64
2019-12-01 12:00:00 21.5 28 Norte 48 Norte 0 -- -- 63
2019-12-01 11:00:00 20.4 34 Nordeste 55 Nordeste 0 -- -- 65
2019-12-01 10:00:00 19.1 37 Norte 60 Norte 0 -- -- 71
2019-12-01 09:00:00 17.9 39 Norte 52 Norte 0 -- -- 74
2019-12-01 08:00:00 16.8 36 Norte 55 Norte 0 -- -- 75
2019-12-01 07:00:00 17 33 Norte 48 Norte 0 -- -- 72
2019-12-01 06:00:00 17.4 31 Norte 44 Norte 0 -- -- 68
2019-12-01 05:00:00 19.5 23 Norte 37 Norte 0 -- -- 40
2019-12-01 04:00:00 18.9 25 Norte 42 Nordeste 0 -- -- 48
2019-12-01 03:00:00 17 30 Nordeste 41 Nordeste 0 -- -- 78
2019-12-01 02:00:00 17.3 21 Nordeste 27 Nordeste 0 -- -- 71
2019-12-01 01:00:00 18.3 14 Nordeste 20 Nordeste 0 -- -- 59
2019-12-01 00:00:00 20.6 14 Norte 21 Norte 0 -- -- 28
2019-11-30 23:00:00 17.8 15 Nordeste 19 Nordeste 0 -- -- 55
2019-11-30 22:00:00 18.3 13 Nordeste 17 Nordeste 0 -- -- 58
2019-11-30 21:00:00 18 12 Nordeste 15 Nordeste 0 -- -- 65
2019-11-30 20:00:00 17.9 11 Nordeste 13 Nordeste 0 -- -- 85
2019-11-30 19:00:00 18.8 9 Nordeste 14 Nordeste 0 -- -- 82
2019-11-30 18:00:00 20.5 12 Nordeste 18 Nordeste 0 -- -- 76
2019-11-30 17:00:00 23 14 Nordeste 20 Nordeste 0 -- -- 66
2019-11-30 16:00:00 24.8 16 Nordeste 24 Nordeste 0 -- -- 52
2019-11-30 15:00:00 26.2 17 Nordeste 26 Nordeste 0 -- -- 44
2019-11-30 14:00:00 27.3 10 Este 19 Este 0 -- -- 37
2019-11-30 13:00:00 27.3 8 Nordeste 14 Este 0 -- -- 32
2019-11-30 12:00:00 26.5 9 Nordeste 17 Nordeste 0 -- -- 33
2019-11-30 11:00:00 26.2 10 Nordeste 18 Este 0 -- -- 34
2019-11-30 10:00:00 25.6 9 Nordeste 16 Nordeste 0 -- -- 29
2019-11-30 09:00:00 24.2 5 Nordeste 18 Norte 0 -- -- 26
2019-11-30 08:00:00 21.4 8 Norte 19 Norte 0 -- -- 29
2019-11-30 07:00:00 21.3 14 Norte 21 Noroeste 0 -- -- 29
2019-11-30 06:00:00 21.1 14 Norte 20 Norte 0 -- -- 28
2019-11-30 05:00:00 22.3 10 Norte 22 Norte 0 -- -- 26
2019-11-30 04:00:00 22.3 9 Norte 20 Norte 0 -- -- 27
2019-11-30 03:00:00 23.2 11 Norte 22 Norte 0 -- -- 25
2019-11-30 02:00:00 23.2 13 Norte 22 Norte 0 -- -- 25
2019-11-30 01:00:00 22.6 16 Norte 24 Norte 0 -- -- 27
2019-11-30 00:00:00 22.5 14 Norte 28 Norte 0 -- -- 27
2019-11-29 23:00:00 22.7 18 Norte 27 Norte 0 -- -- 27
2019-11-29 22:00:00 19.4 14 Nordeste 19 Nordeste 0 -- -- 45
2019-11-29 21:00:00 20.5 11 Nordeste 14 Norte 0 -- -- 35
2019-11-29 20:00:00 22.6 6 Noroeste 10 Noroeste 0 -- -- 26
2019-11-29 19:00:00 20.8 6 Nordeste 10 Este 0 -- -- 50
2019-11-29 18:00:00 23.6 4 Norte 9 Este 0 -- -- 41
2019-11-29 17:00:00 26 5 Este 14 Sudoeste 0 -- -- 35
2019-11-29 16:00:00 26.7 5 Este 15 Sudeste 0 -- -- 26
2019-11-29 15:00:00 27.1 9 Este 17 Sudeste 0 -- -- 34
2019-11-29 14:00:00 27.2 8 Este 15 Este 0 -- -- 33
2019-11-29 13:00:00 27.1 8 Nordeste 16 Este 0 -- -- 34
2019-11-29 12:00:00 26.5 10 Nordeste 20 Nordeste 0 -- -- 35
2019-11-29 11:00:00 26 12 Nordeste 18 Nordeste 0 -- -- 37
2019-11-29 10:00:00 25.1 7 Nordeste 25 Este 0 -- -- 33
2019-11-29 09:00:00 23.4 5 Noroeste 17 Norte 0 -- -- 35
2019-11-29 08:00:00 21.2 9 Norte 24 Norte 0 -- -- 37
2019-11-29 07:00:00 21.2 12 Norte 22 Nordeste 0 -- -- 37
2019-11-29 06:00:00 21.4 12 Norte 24 Nordeste 0 -- -- 36
2019-11-29 05:00:00 20.4 12 Norte 21 Nordeste 0 -- -- 39
2019-11-29 04:00:00 19.2 13 Nordeste 17 Norte 0 -- -- 49
2019-11-29 03:00:00 18.5 14 Norte 23 Este 0 -- -- 50
2019-11-29 02:00:00 20.2 13 Nordeste 27 Norte 0 -- -- 46
2019-11-29 01:00:00 20.2 12 Norte 32 Norte 0 -- -- 42
2019-11-29 00:00:00 19.2 22 Nordeste 30 Nordeste 0 -- -- 49
2019-11-28 23:00:00 19.8 20 Nordeste 32 Norte 0 -- -- 51
2019-11-28 22:00:00 22 18 Norte 31 Norte 0 -- -- 42
2019-11-28 21:00:00 21.7 20 Norte 30 Norte 0 -- -- 42
2019-11-28 20:00:00 21 19 Norte 28 Norte 0 -- -- 45
2019-11-28 19:00:00 19.8 14 Nordeste 23 Nordeste 0 -- -- 64
2019-11-28 18:00:00 20.7 10 Nordeste 21 Norte 0 -- -- 62
2019-11-28 17:00:00 21.9 12 Nordeste 22 Nordeste 0 -- -- 51
2019-11-28 16:00:00 22.5 14 Nordeste 21 Norte 0 -- -- 46
2019-11-28 15:00:00 23.2 13 Nordeste 23 Nordeste 0 -- -- 47
2019-11-28 14:00:00 24.1 15 Nordeste 22 Nordeste 0 -- -- 44
2019-11-28 13:00:00 24.8 13 Nordeste 23 Nordeste 0 -- -- 45
2019-11-28 12:00:00 23.3 14 Nordeste 23 Nordeste 0 -- -- 51
2019-11-28 11:00:00 24 15 Nordeste 24 Nordeste 0 -- -- 48
2019-11-28 10:00:00 22.3 15 Nordeste 24 Nordeste 0 -- -- 49
2019-11-28 09:00:00 17.7 15 Nordeste 25 Nordeste 0 -- -- 70
2019-11-28 08:00:00 16.2 18 Norte 40 Nordeste 0 -- -- 78
2019-11-28 07:00:00 15.9 26 Norte 39 Norte 0 -- -- 81
2019-11-28 06:00:00 16 26 Norte 45 Norte 0 -- -- 81
2019-11-28 05:00:00 16.2 31 Norte 46 Norte 0 -- -- 82
2019-11-28 04:00:00 16.5 29 Nordeste 40 Nordeste 0 -- -- 78
2019-11-28 03:00:00 17.4 15 Norte 42 Norte 0 -- -- 68
2019-11-28 02:00:00 16.9 25 Norte 50 Norte 0 -- -- 75
2019-11-28 01:00:00 17.4 29 Norte 46 Norte 0 -- -- 71
2019-11-28 00:00:00 17.7 28 Norte 46 Norte 0 -- -- 70
2019-11-27 23:00:00 18.3 23 Norte 40 Norte 0 -- -- 64
2019-11-27 22:00:00 18.3 28 Norte 56 Norte 0 -- -- 66
2019-11-27 21:00:00 18.2 24 Norte 37 Norte 0 -- -- 69
2019-11-27 20:00:00 18.6 15 Norte 30 Norte 0 -- -- 64
2019-11-27 19:00:00 18.5 6 Nordeste 23 Nordeste 0 -- -- 66
2019-11-27 18:00:00 18.7 18 Nordeste 26 Nordeste 0 -- -- 73
2019-11-27 17:00:00 20.3 20 Nordeste 34 Nordeste 0 -- -- 69
2019-11-27 16:00:00 21.8 23 Nordeste 40 Nordeste 0 -- -- 65
2019-11-27 15:00:00 22.2 27 Nordeste 44 Nordeste 0 -- -- 64
2019-11-27 14:00:00 22.5 26 Nordeste 43 Nordeste 0 -- -- 63
2019-11-27 13:00:00 22.3 31 Nordeste 44 Nordeste 0 -- -- 63
2019-11-27 05:00:00 -- -- -- -- -- -- -- -- --
2019-11-27 04:00:00 -- -- -- -- -- -- -- -- --
2019-11-27 03:00:00 -- -- -- -- -- -- -- -- --
2019-11-27 02:00:00 -- -- -- -- -- -- -- -- --
2019-11-27 01:00:00 16.5 26 Norte 48 Nordeste 0 -- -- 80
2019-11-27 00:00:00 16.7 37 Nordeste 47 Nordeste 0 -- -- 81
2019-11-26 23:00:00 17.6 21 Norte 32 Norte 0 -- -- 72
2019-11-26 22:00:00 17.3 24 Norte 37 Norte 0 -- -- 74
2019-11-26 21:00:00 17.4 19 Norte 31 Norte 0 -- -- 76
2019-11-26 20:00:00 17.5 4 Norte 22 Nordeste 0 -- -- 75
2019-11-26 19:00:00 18.2 15 Nordeste 34 Norte 0 -- -- 73
2019-11-26 18:00:00 19.1 20 Norte 35 Norte 0 -- -- 72
2019-11-26 17:00:00 20.3 25 Norte 34 Norte 0 -- -- 69
2019-11-26 16:00:00 22.8 18 Nordeste 34 Nordeste 0 -- -- 62
2019-11-26 15:00:00 22.9 22 Nordeste 35 Nordeste 0 -- -- 62
2019-11-26 14:00:00 23.3 17 Nordeste 30 Nordeste 0 -- -- 59
2019-11-26 13:00:00 23.5 20 Nordeste 36 Este 0 -- -- 59
2019-11-26 12:00:00 22.8 22 Nordeste 36 Nordeste 0 -- -- 61
2019-11-26 11:00:00 21.4 24 Nordeste 36 Nordeste 0 -- -- 65
2019-11-26 10:00:00 20.3 18 Nordeste 36 Norte 0 -- -- 66
2019-11-26 09:00:00 17.9 14 Norte 28 Norte 0 -- -- 75
2019-11-26 08:00:00 14.9 4 Noroeste 10 Noroeste 0 -- -- 86
2019-11-26 07:00:00 16 5 Norte 27 Norte 0 -- -- 80
2019-11-26 06:00:00 16.4 19 Norte 38 Norte 0 -- -- 78
2019-11-26 05:00:00 16.2 26 Norte 37 Norte 0 -- -- 81
2019-11-26 04:00:00 16.5 10 Norte 41 Norte 0 -- -- 76
2019-11-26 03:00:00 16.6 23 Norte 44 Norte 0 -- -- 75
2019-11-26 02:00:00 16.1 22 Norte 30 Norte 0 -- -- 80
2019-11-26 01:00:00 15.9 6 Norte 39 Norte 0 -- -- 79
2019-11-26 00:00:00 16.8 28 Norte 44 Norte 0 -- -- 78
2019-11-25 23:00:00 16.9 21 Norte 36 Norte 0 -- -- 79
2019-11-25 22:00:00 17.1 21 Norte 33 Norte 0 -- -- 76
2019-11-25 21:00:00 17.1 18 Norte 37 Norte 0 -- -- 77
2019-11-25 20:00:00 17.4 20 Norte 31 Norte 0 -- -- 75
2019-11-25 19:00:00 17.5 22 Norte 34 Norte 0 -- -- 72
2019-11-25 18:00:00 18 26 Norte 48 Norte 0 -- -- 70
2019-11-25 17:00:00 18.9 30 Norte 43 Norte 0 -- -- 67
2019-11-25 16:00:00 19.5 27 Nordeste 41 Nordeste 0 -- -- 67
2019-11-25 15:00:00 20.7 30 Nordeste 46 Nordeste 0 -- -- 63
2019-11-25 14:00:00 22.1 27 Nordeste 55 Nordeste 0 -- -- 60
2019-11-25 13:00:00 21.6 30 Nordeste 41 Norte 0 -- -- 60
2019-11-25 12:00:00 20.1 27 Norte 45 Norte 0 -- -- 65
2019-11-25 11:00:00 20.2 26 Norte 43 Nordeste 0 -- -- 63
2019-11-25 10:00:00 19.8 27 Nordeste 41 Norte 0 -- -- 66
2019-11-25 09:00:00 17.8 28 Norte 40 Norte 0 -- -- 70
2019-11-25 08:00:00 15.9 25 Norte 37 Norte 0 -- -- 73
2019-11-25 07:00:00 15.4 4 Norte 38 Norte 0 -- -- 71
2019-11-25 06:00:00 16 22 Norte 37 Norte 0 -- -- 71
2019-11-25 05:00:00 16 19 Norte 31 Norte 0 -- -- 71
2019-11-25 04:00:00 15.5 4 Norte 26 Norte 0 -- -- 72
2019-11-25 03:00:00 16.1 20 Norte 38 Norte 0 -- -- 70
2019-11-25 02:00:00 16.3 23 Norte 40 Norte 0 -- -- 71
2019-11-25 01:00:00 16.5 28 Norte 53 Norte 0 -- -- 70
2019-11-25 00:00:00 16.9 36 Norte 52 Norte 0 -- -- 69
2019-11-24 23:00:00 16.9 22 Norte 47 Norte 0 -- -- 71
2019-11-24 22:00:00 17.1 30 Norte 51 Norte 0 -- -- 68
2019-11-24 21:00:00 17.1 31 Norte 47 Norte 0 -- -- 72
2019-11-24 20:00:00 17.5 21 Norte 45 Norte 0 -- -- 69
2019-11-24 19:00:00 17.8 30 Norte 51 Norte 0 -- -- 66
2019-11-24 18:00:00 18.1 30 Norte 46 Norte 0 -- -- 66
2019-11-24 17:00:00 19 31 Norte 49 Norte 0 -- -- 69
2019-11-24 16:00:00 20.8 32 Norte 48 Norte 0 -- -- 64
2019-11-24 15:00:00 21.9 30 Nordeste 45 Nordeste 0 -- -- 65
2019-11-24 14:00:00 22.8 30 Norte 51 Norte 0 -- -- 53
2019-11-24 13:00:00 22.3 33 Norte 53 Norte 0 -- -- 61
2019-11-24 12:00:00 22.6 26 Norte 46 Norte 0 -- -- 55
2019-11-24 11:00:00 21.2 30 Norte 46 Norte 0 -- -- 64
2019-11-24 10:00:00 19.8 29 Norte 45 Norte 0 -- -- 72
2019-11-24 09:00:00 18.5 23 Norte 36 Norte 0 -- -- 77
2019-11-24 08:00:00 17.1 23 Norte 34 Nordeste 0 -- -- 87
2019-11-24 07:00:00 18 16 Nordeste 32 Norte 0 -- -- 74
2019-11-24 06:00:00 18.8 16 Norte 36 Norte 0 -- -- 67
2019-11-24 05:00:00 18.2 14 Norte 35 Norte 0 -- -- 69
2019-11-24 04:00:00 18.2 21 Norte 38 Norte 0 -- -- 70
2019-11-24 03:00:00 17.7 19 Norte 28 Norte 0 -- -- 76
2019-11-24 02:00:00 18.3 15 Norte 32 Norte 0 -- -- 67
2019-11-24 01:00:00 18.6 14 Norte 28 Norte 0 -- -- 70
2019-11-24 00:00:00 18.5 16 Norte 37 Norte 0 -- -- 72
2019-11-23 23:00:00 18.5 17 Norte 35 Norte 0 -- -- 70
2019-11-23 22:00:00 18.7 19 Norte 33 Norte 0 -- -- 70
2019-11-23 21:00:00 18.5 20 Norte 35 Norte 0 -- -- 70
2019-11-23 20:00:00 18.8 22 Norte 34 Norte 0 -- -- 73
2019-11-23 19:00:00 18.5 15 Norte 32 Norte 0 -- -- 81
2019-11-23 18:00:00 19 20 Norte 35 Norte 0 -- -- 82
2019-11-23 17:00:00 19.4 19 Norte 34 Nordeste 0.2 -- -- 86
2019-11-23 16:00:00 22 12 Sudeste 25 Este 0 -- -- 70
2019-11-23 15:00:00 22.6 14 Sur 34 Sur 0 -- -- 68
2019-11-23 14:00:00 23 15 Sur 31 Sudeste 0 -- -- 67
2019-11-23 13:00:00 24.2 17 Sur 28 Sur 0 -- -- 62
2019-11-23 12:00:00 23.5 12 Sur 22 Sur 0 -- -- 63
2019-11-23 11:00:00 22.1 11 Sur 18 Sudoeste 0 -- -- 67
2019-11-23 10:00:00 20.6 8 Sur 15 Sur 0 -- -- 75
2019-11-23 09:00:00 18.8 4 Sur 9 Nordeste 0 -- -- 82
2019-11-23 08:00:00 17.2 4 Norte 8 Norte 0 -- -- 85
2019-11-23 07:00:00 16.8 2 Noroeste 5 Noroeste 0 -- -- 84
2019-11-23 06:00:00 16.3 3 Noroeste 7 Noroeste 0 -- -- 86
2019-11-23 05:00:00 15.7 3 Noroeste 8 Oeste 0 -- -- 86
2019-11-23 04:00:00 16.3 5 Oeste 9 Oeste 0 -- -- 87
2019-11-23 03:00:00 16.3 4 Oeste 10 Oeste 0 -- -- 88
2019-11-23 02:00:00 16.6 3 Oeste 9 Norte 0 -- -- 86
2019-11-23 01:00:00 16.8 5 Norte 12 Norte 0 -- -- 84
2019-11-23 00:00:00 16.9 8 Norte 12 Noroeste 0 -- -- 83
2019-11-22 23:00:00 16.8 0 Calma 6 Norte 0 -- -- 84
2019-11-22 22:00:00 17.2 0 Calma 6 Noroeste 0 -- -- 83
2019-11-22 21:00:00 17.7 3 Oeste 5 Oeste 0 -- -- 83
2019-11-22 20:00:00 18 3 Oeste 8 Sudoeste 0 -- -- 83
2019-11-22 19:00:00 18.6 5 Sudoeste 8 Sudoeste 0 -- -- 80
2019-11-22 18:00:00 19.7 5 Este 17 Sur 0 -- -- 76
2019-11-22 17:00:00 20.9 3 Nordeste 16 Nordeste 0 -- -- 71
2019-11-22 16:00:00 21.3 12 Nordeste 21 Este 0 -- -- 68
2019-11-22 15:00:00 22.5 12 Este 24 Nordeste 0 -- -- 62
2019-11-22 14:00:00 23.9 15 Nordeste 28 Nordeste 0 -- -- 60
2019-11-22 13:00:00 24.4 6 Sudeste 17 Este 0 -- -- 59
2019-11-22 12:00:00 23.2 7 Sur 14 Sur 0 -- -- 63
2019-11-22 11:00:00 22.6 6 Sudoeste 14 Sur 0 -- -- 63
2019-11-22 10:00:00 21.1 6 Sur 12 Sur 0 -- -- 67
2019-11-22 09:00:00 19.5 5 Nordeste 12 Nordeste 0 -- -- 73
2019-11-22 08:00:00 16.4 4 Oeste 6 Oeste 0 -- -- 82
2019-11-22 07:00:00 15.8 5 Norte 9 Noroeste 0 -- -- 81
2019-11-22 06:00:00 16.1 5 Norte 11 Noroeste 0 -- -- 79
2019-11-22 05:00:00 16.7 10 Norte 13 Norte 0 -- -- 76
2019-11-22 04:00:00 16.6 4 Noroeste 13 Noroeste 0 -- -- 77
2019-11-22 03:00:00 16.9 9 Norte 14 Norte 0 -- -- 77
2019-11-22 02:00:00 16.9 9 Norte 13 Noroeste 0 -- -- 77
2019-11-22 01:00:00 17 9 Norte 13 Noroeste 0 -- -- 77
2019-11-22 00:00:00 16.2 3 Sudoeste 5 Sur 0 -- -- 85
2019-11-21 23:00:00 16.1 2 Sudoeste 5 Sudoeste 0 -- -- 87
2019-11-21 22:00:00 16.1 3 Noroeste 5 Noroeste 0 -- -- 87
2019-11-21 21:00:00 16.4 4 Oeste 6 Oeste 0 -- -- 86
2019-11-21 20:00:00 16.4 4 Noroeste 8 Norte 0 -- -- 84
2019-11-21 19:00:00 17 5 Norte 8 Norte 0 -- -- 83
2019-11-21 18:00:00 18.3 6 Nordeste 13 Nordeste 0 -- -- 78
2019-11-21 17:00:00 19.3 10 Nordeste 17 Nordeste 0 -- -- 74
2019-11-21 16:00:00 20.3 10 Nordeste 17 Nordeste 0 -- -- 71
2019-11-21 15:00:00 20.2 10 Nordeste 17 Nordeste 0 -- -- 73
2019-11-21 14:00:00 19.6 12 Nordeste 18 Nordeste 0 -- -- 75
2019-11-21 13:00:00 19.2 5 Este 15 Este 0 -- -- 76
2019-11-21 12:00:00 19.8 6 Sudeste 14 Sudeste 0 -- -- 73
2019-11-21 11:00:00 19.5 8 Sudeste 16 Sur 0 -- -- 73
2019-11-21 10:00:00 20.3 5 Este 14 Este 0 -- -- 68
2019-11-21 09:00:00 18.8 5 Este 9 Nordeste 0 -- -- 71
2019-11-21 08:00:00 16.2 5 Norte 9 Norte 0 -- -- 81
2019-11-21 07:00:00 -- -- -- -- -- -- -- -- --
2019-11-21 06:00:00 -- -- -- -- -- -- -- -- --
2019-11-21 05:00:00 -- -- -- -- -- -- -- -- --
2019-11-21 04:00:00 -- -- -- -- -- -- -- -- --
2019-11-21 03:00:00 -- -- -- -- -- -- -- -- --
2019-11-21 02:00:00 -- -- -- -- -- -- -- -- --
2019-11-21 01:00:00 -- -- -- -- -- -- -- -- --
2019-11-21 00:00:00 -- -- -- -- -- -- -- -- --
2019-11-20 23:00:00 -- -- -- -- -- -- -- -- --
2019-11-20 22:00:00 -- -- -- -- -- -- -- -- --
2019-11-20 21:00:00 -- -- -- -- -- -- -- -- --
2019-11-20 20:00:00 -- -- -- -- -- -- -- -- --
2019-11-20 19:00:00 17.7 14 Norte 20 Norte 0 -- -- 77
2019-11-20 18:00:00 18.6 13 Nordeste 22 Nordeste 0 -- -- 73
2019-11-20 17:00:00 20.4 10 Nordeste 19 Este 0 -- -- 65
2019-11-20 16:00:00 21.6 10 Nordeste 20 Nordeste 0 -- -- 60
2019-11-20 15:00:00 22.8 13 Nordeste 23 Nordeste 0 -- -- 51
2019-11-20 14:00:00 23.1 9 Nordeste 30 Este 0 -- -- 52
2019-11-20 13:00:00 23.4 12 Sur 24 Sur 0 -- -- 50
2019-11-20 12:00:00 22.9 13 Sur 21 Sur 0 -- -- 49
2019-11-20 11:00:00 21.9 9 Sudeste 17 Sur 0 -- -- 52
2019-11-20 10:00:00 20.2 6 Sudeste 13 Sudeste 0 -- -- 55
2019-11-20 09:00:00 18.2 3 Nordeste 6 Nordeste 0 -- -- 63
2019-11-20 08:00:00 15.3 0 Calma 9 Noroeste 0 -- -- 72
2019-11-20 07:00:00 14.6 2 Oeste 9 Noroeste 0 -- -- 75
2019-11-20 06:00:00 14.5 5 Noroeste 7 Noroeste 0 -- -- 74
2019-11-20 05:00:00 14.4 8 Norte 13 Norte 0 -- -- 74
2019-11-20 04:00:00 14.4 10 Norte 13 Norte 0 -- -- 72
2019-11-20 03:00:00 14.5 9 Norte 12 Norte 0 -- -- 80
2019-11-20 02:00:00 14.5 10 Norte 12 Norte 0 -- -- 80
2019-11-20 01:00:00 14.9 5 Noroeste 9 Noroeste 0 -- -- 81
2019-11-20 00:00:00 15 5 Norte 12 Norte 0 -- -- 80
2019-11-19 23:00:00 15.3 0 Calma 8 Noroeste 0 -- -- 79
2019-11-19 22:00:00 15.7 6 Oeste 10 Noroeste 0 -- -- 82
2019-11-19 21:00:00 16.1 4 Oeste 8 Noroeste 0 -- -- 83
2019-11-19 20:00:00 16.7 0 Calma 10 Sur 0 -- -- 80
2019-11-19 19:00:00 17.5 7 Sur 13 Sur 0 -- -- 78
2019-11-19 18:00:00 18.7 6 Sur 15 Sudeste 0 -- -- 70
2019-11-19 17:00:00 19.8 8 Sur 26 Sur 0 -- -- 63
2019-11-19 16:00:00 21.4 8 Sudeste 21 Sur 0 -- -- 57
2019-11-19 15:00:00 21.1 12 Sur 35 Nordeste 0 -- -- 58
2019-11-19 14:00:00 19.8 22 Norte 37 Norte 0 -- -- 67
2019-11-19 13:00:00 21.1 10 Sur 30 Sur 0 -- -- 64
2019-11-19 12:00:00 21.6 18 Sur 28 Sur 0 -- -- 62
2019-11-19 11:00:00 21.5 10 Sur 18 Sur 0 -- -- 55
2019-11-19 10:00:00 19.5 9 Sur 15 Sur 0 -- -- 59
2019-11-19 09:00:00 18.5 7 Sur 10 Sudeste 0 -- -- 60
2019-11-19 08:00:00 15.3 9 Oeste 12 Oeste 0 -- -- 70
2019-11-19 07:00:00 15.1 3 Este 13 Noroeste 0 -- -- 71
2019-11-19 06:00:00 15.6 8 Noroeste 17 Norte 0 -- -- 68
2019-11-19 05:00:00 15.7 10 Norte 16 Noroeste 0 -- -- 69
2019-11-19 04:00:00 15.5 9 Noroeste 20 Norte 0 -- -- 67
2019-11-19 03:00:00 16.3 12 Norte 22 Norte 0 -- -- 68
2019-11-19 02:00:00 16.4 12 Norte 23 Norte 0 -- -- 71
2019-11-19 01:00:00 16.6 12 Norte 24 Norte 0 -- -- 68
2019-11-19 00:00:00 16.9 17 Norte 35 Norte 0 -- -- 64
2019-11-18 23:00:00 16.4 15 Norte 27 Norte 0 -- -- 65
2019-11-18 22:00:00 16.6 18 Norte 29 Norte 0 -- -- 65
2019-11-18 21:00:00 16.6 24 Norte 37 Norte 0 -- -- 71
2019-11-18 20:00:00 16.7 18 Norte 29 Nordeste 0 -- -- 71
2019-11-18 19:00:00 16.6 15 Norte 25 Norte 0 -- -- 70
2019-11-18 18:00:00 17.2 19 Norte 40 Norte 0 -- -- 68
2019-11-18 17:00:00 18.5 22 Norte 41 Nordeste 0 -- -- 64
2019-11-18 16:00:00 19.8 30 Nordeste 48 Nordeste 0 -- -- 59
2019-11-18 15:00:00 20.5 30 Nordeste 49 Nordeste 0 -- -- 57
2019-11-18 14:00:00 20.6 31 Nordeste 50 Nordeste 0 -- -- 56
2019-11-18 13:00:00 20.7 27 Nordeste 46 Norte 0 -- -- 53
2019-11-18 12:00:00 20.2 31 Nordeste 47 Nordeste 0 -- -- 56
2019-11-18 11:00:00 19.1 30 Norte 43 Norte 0 -- -- 67
2019-11-18 10:00:00 18.4 27 Norte 44 Norte 0 -- -- 67
2019-11-18 09:00:00 16.9 30 Norte 40 Norte 0 -- -- 73
2019-11-18 08:00:00 15.4 27 Norte 40 Norte 0 -- -- 75
2019-11-18 07:00:00 15.3 31 Norte 45 Norte 0 -- -- 74
2019-11-18 06:00:00 15.2 32 Norte 51 Norte 0 -- -- 73
2019-11-18 05:00:00 15.2 33 Norte 50 Norte 0 -- -- 73
2019-11-18 04:00:00 15.1 34 Norte 47 Norte 0 -- -- 71
2019-11-18 03:00:00 15.1 34 Norte 50 Norte 0 -- -- 71
2019-11-18 02:00:00 15 35 Norte 55 Norte 0 -- -- 72
2019-11-18 01:00:00 15.1 34 Norte 51 Norte 0 -- -- 73
2019-11-18 00:00:00 15.1 30 Norte 48 Norte 0 -- -- 76
2019-11-17 23:00:00 15.4 24 Norte 40 Norte 0 -- -- 76
2019-11-17 22:00:00 15.5 30 Norte 49 Norte 0 -- -- 78
2019-11-17 21:00:00 15.5 27 Norte 43 Norte 0 -- -- 79
2019-11-17 20:00:00 15.7 28 Norte 40 Nordeste 0 -- -- 78
2019-11-17 19:00:00 15.6 23 Norte 37 Norte 0 -- -- 80
2019-11-17 18:00:00 15.4 23 Norte 39 Nordeste 0 -- -- 81
2019-11-17 17:00:00 16.7 22 Norte 41 Nordeste 0 -- -- 74
2019-11-17 16:00:00 17.6 24 Norte 42 Norte 0 -- -- 70
2019-11-17 15:00:00 16.6 25 Norte 43 Norte 0 -- -- 76
2019-11-17 14:00:00 15.8 22 Norte 50 Norte 0 -- -- 85
2019-11-17 13:00:00 18.3 28 Nordeste 48 Nordeste 0 -- -- 60
2019-11-17 12:00:00 17.3 26 Norte 51 Norte 0 -- -- 66
2019-11-17 11:00:00 15.9 24 Norte 41 Nordeste 0.2 -- -- 78
2019-11-17 10:00:00 15.8 21 Norte 44 Norte 0 -- -- 79
2019-11-17 09:00:00 15.4 20 Norte 37 Nordeste 0 -- -- 76
2019-11-17 08:00:00 14.2 27 Norte 39 Norte 0 -- -- 85
2019-11-17 07:00:00 14.4 20 Norte 36 Norte 0.2 -- -- 82
2019-11-17 06:00:00 14.1 21 Norte 34 Norte 0.2 -- -- 84
2019-11-17 05:00:00 14.9 24 Norte 40 Norte 0 -- -- 76
2019-11-17 04:00:00 15.2 19 Norte 39 Norte 0 -- -- 82
2019-11-17 03:00:00 15.3 21 Norte 36 Norte 0 -- -- 81
2019-11-17 02:00:00 15.4 21 Norte 39 Norte 0 -- -- 78
2019-11-17 01:00:00 15.3 24 Norte 43 Norte 0 -- -- 78
2019-11-17 00:00:00 14.9 27 Norte 48 Nordeste 0.2 -- -- 84
2019-11-16 23:00:00 15.1 27 Norte 42 Norte 0 -- -- 86
2019-11-16 22:00:00 15.9 25 Norte 48 Norte 0 -- -- 77
2019-11-16 21:00:00 15.8 30 Norte 54 Nordeste 0 -- -- 78
2019-11-16 20:00:00 16 30 Norte 51 Norte 0 -- -- 76
2019-11-16 19:00:00 16.8 24 Norte 46 Norte 0 -- -- 68
2019-11-16 18:00:00 16.8 27 Norte 55 Nordeste 0 -- -- 65
2019-11-16 17:00:00 18 30 Norte 55 Norte 0 -- -- 63
2019-11-16 16:00:00 19.6 36 Norte 57 Norte 0 -- -- 56
2019-11-16 15:00:00 19.5 36 Norte 62 Norte 0 -- -- 52
2019-11-16 14:00:00 20 31 Norte 64 Norte 0 -- -- 52
2019-11-16 13:00:00 19.4 40 Norte 63 Norte 0 -- -- 52
2019-11-16 12:00:00 19.2 37 Norte 64 Norte 0 -- -- 55
2019-11-16 11:00:00 17.9 31 Norte 59 Norte 0 -- -- 67
2019-11-16 10:00:00 17.2 34 Norte 58 Norte 0 -- -- 68
2019-11-16 09:00:00 16.8 26 Norte 46 Norte 0 -- -- 73
2019-11-16 08:00:00 15 26 Norte 48 Norte 0 -- -- 79
2019-11-16 07:00:00 15 27 Norte 44 Norte 0.2 -- -- 79
2019-11-16 06:00:00 15.2 24 Norte 39 Norte 0 -- -- 77
2019-11-16 05:00:00 15.1 24 Norte 45 Norte 0 -- -- 76
2019-11-16 04:00:00 15 21 Norte 46 Norte 0 -- -- 82
2019-11-16 03:00:00 14.6 31 Norte 59 Norte 0 -- -- 78
2019-11-16 02:00:00 15 26 Norte 41 Norte 0 -- -- 80
2019-11-16 01:00:00 14.4 25 Norte 44 Nordeste 0 -- -- 84
2019-11-16 00:00:00 15.1 27 Norte 45 Norte 0 -- -- 77
2019-11-15 23:00:00 15.6 24 Norte 43 Norte 0 -- -- 79
2019-11-15 22:00:00 15.7 24 Norte 42 Norte 0 -- -- 76
2019-11-15 21:00:00 15.6 23 Norte 47 Nordeste 0.2 -- -- 83
2019-11-15 20:00:00 15.5 24 Norte 40 Norte 0 -- -- 78
2019-11-15 19:00:00 16 22 Norte 42 Norte 0 -- -- 73
2019-11-15 18:00:00 15.8 23 Norte 48 Norte 0 -- -- 74
2019-11-15 17:00:00 16.8 28 Norte 47 Norte 0 -- -- 68
2019-11-15 16:00:00 16.3 28 Nordeste 46 Nordeste 0.2 -- -- 79
2019-11-15 15:00:00 17.4 28 Norte 43 Norte 0 -- -- 73
2019-11-15 14:00:00 16.4 27 Norte 46 Nordeste 0 -- -- 80
2019-11-15 13:00:00 17.2 30 Nordeste 52 Nordeste 1.6 -- -- 88
2019-11-15 12:00:00 16.7 21 Norte 51 Nordeste 1 -- -- 87
2019-11-15 11:00:00 16.9 26 Norte 49 Norte 0.4 -- -- 85
2019-11-15 10:00:00 17.6 21 Norte 47 Nordeste 0 -- -- 84
2019-11-15 09:00:00 16.4 26 Norte 41 Norte 1.4 -- -- 89
2019-11-15 08:00:00 15.7 26 Norte 46 Norte 0.2 -- -- 89
2019-11-15 07:00:00 16.5 24 Norte 41 Norte 0 -- -- 80
2019-11-15 06:00:00 17.3 24 Norte 42 Norte 0 -- -- 73
2019-11-15 05:00:00 17.1 30 Norte 47 Norte 0 -- -- 67
2019-11-15 04:00:00 16.4 23 Norte 51 Norte 0 -- -- 74
2019-11-15 03:00:00 16.2 28 Norte 51 Norte 0 -- -- 80
2019-11-15 02:00:00 16.8 32 Norte 51 Norte 0 -- -- 69
2019-11-15 01:00:00 16.2 32 Norte 60 Nordeste 0.2 -- -- 79
2019-11-15 00:00:00 16 42 Norte 59 Norte 0 -- -- 86